createdAt,value
2022-09-14T00:01:52.362Z,7.85
2022-09-14T00:04:25.411Z,11.25
2022-09-14T00:07:00.060Z,7.78
2022-09-14T00:09:28.082Z,6.38
2022-09-14T00:11:57.623Z,9.43
2022-09-14T00:14:29.358Z,6.68
2022-09-14T00:17:05.143Z,5.38
2022-09-14T00:19:45.417Z,7.82
2022-09-14T00:22:15.383Z,6.53
2022-09-14T00:24:43.594Z,7.65
2022-09-14T00:27:12.482Z,6.30
2022-09-14T00:29:41.380Z,6.35
2022-09-14T00:32:17.194Z,6.88
2022-09-14T00:34:47.859Z,6.38
2022-09-14T00:37:15.539Z,8.70
2022-09-14T00:39:43.699Z,5.25
2022-09-14T00:42:15.935Z,6.30
2022-09-14T00:44:46.647Z,3.95
2022-09-14T00:47:14.320Z,7.90
2022-09-14T00:52:35.359Z,5.38
2022-09-14T00:55:08.437Z,5.57
2022-09-14T00:57:39.351Z,4.60
2022-09-14T01:00:14.974Z,5.00
2022-09-14T01:02:42.368Z,6.32
2022-09-14T01:05:10.777Z,7.25
2022-09-14T01:07:44.159Z,5.32
2022-09-14T01:10:30.260Z,6.85
2022-09-14T01:13:22.597Z,5.75
2022-09-14T01:16:17.879Z,6.32
2022-09-14T01:18:50.647Z,8.38
2022-09-14T01:21:26.071Z,4.72
2022-09-14T01:24:04.001Z,6.65
2022-09-14T01:27:02.183Z,8.18
2022-09-14T01:29:55.433Z,8.90
2022-09-14T01:32:37.743Z,5.82
2022-09-14T01:35:24.853Z,11.05
2022-09-14T01:38:13.354Z,5.45
2022-09-14T01:40:42.874Z,7.15
2022-09-14T01:43:12.333Z,5.03
2022-09-14T01:45:42.475Z,7.00
2022-09-14T01:50:40.553Z,7.75
2022-09-14T01:53:22.574Z,7.05
2022-09-14T01:55:53.354Z,9.93
2022-09-14T01:58:27.930Z,7.75
2022-09-14T02:00:56.276Z,8.30
2022-09-14T02:03:45.461Z,8.63
2022-09-14T02:06:33.068Z,8.80
2022-09-14T02:09:00.825Z,10.68
2022-09-14T02:11:34.129Z,10.32
2022-09-14T02:14:08.982Z,8.80
2022-09-14T02:16:44.981Z,8.95
2022-09-14T02:19:13.784Z,11.18
2022-09-14T02:21:41.095Z,8.98
2022-09-14T02:24:08.390Z,8.10
2022-09-14T02:26:35.850Z,19.50
2022-09-14T02:29:06.138Z,10.38
2022-09-14T02:34:24.796Z,9.32
2022-09-14T02:37:03.565Z,9.27
2022-09-14T02:39:47.544Z,10.43
2022-09-14T02:42:29.056Z,9.05
2022-09-14T02:45:11.500Z,11.50
2022-09-14T02:48:03.077Z,8.18
2022-09-14T02:50:49.275Z,7.05
2022-09-14T02:53:29.021Z,7.88
2022-09-14T02:55:59.643Z,10.05
2022-09-14T02:58:34.474Z,6.28
2022-09-14T03:01:03.996Z,10.20
2022-09-14T03:03:38.927Z,8.77
2022-09-14T03:06:11.255Z,7.93
2022-09-14T03:08:52.189Z,8.77
2022-09-14T03:11:19.769Z,10.48
2022-09-14T03:13:49.873Z,7.60
2022-09-14T03:16:23.328Z,6.43
2022-09-14T03:18:51.147Z,8.45
2022-09-14T03:21:18.413Z,9.02
2022-09-14T03:23:47.455Z,7.00
2022-09-14T03:29:51.595Z,7.65
2022-09-14T03:32:18.835Z,10.25
2022-09-14T03:34:47.321Z,12.30
2022-09-14T03:37:44.786Z,11.32
2022-09-14T03:40:15.131Z,9.77
2022-09-14T03:42:45.347Z,10.15
2022-09-14T03:45:16.480Z,8.45
2022-09-14T03:47:43.811Z,8.02
2022-09-14T03:50:14.553Z,13.15
2022-09-14T03:52:44.401Z,10.23
2022-09-14T03:55:20.993Z,11.15
2022-09-14T03:57:51.368Z,9.95
2022-09-14T04:00:21.282Z,12.15
2022-09-14T04:02:51.084Z,9.23
2022-09-14T04:05:21.940Z,10.80
2022-09-14T04:07:54.151Z,11.40
2022-09-14T04:10:24.764Z,9.90
2022-09-14T04:13:14.883Z,9.68
2022-09-14T04:15:43.814Z,15.38
2022-09-14T04:18:20.389Z,10.23
2022-09-14T04:21:21.259Z,8.57
2022-09-14T04:26:45.663Z,10.80
2022-09-14T04:29:21.539Z,10.70
2022-09-14T04:31:49.438Z,13.10
2022-09-14T04:34:22.025Z,13.60
2022-09-14T04:36:52.612Z,9.07
2022-09-14T04:39:22.697Z,10.60
2022-09-14T04:41:58.620Z,12.75
2022-09-14T04:44:29.737Z,9.93
2022-09-14T04:46:56.992Z,11.73
2022-09-14T04:49:28.092Z,10.80
2022-09-14T04:51:59.006Z,10.30
2022-09-14T04:56:55.112Z,11.43
2022-09-14T04:59:22.292Z,13.60
2022-09-14T05:01:49.476Z,14.40
2022-09-14T05:04:16.849Z,12.13
2022-09-14T05:06:44.500Z,11.10
2022-09-14T05:09:16.561Z,10.70
2022-09-14T05:11:44.393Z,11.60
2022-09-14T05:14:15.612Z,10.25
2022-09-14T05:16:43.063Z,12.55
2022-09-14T05:19:12.994Z,11.45
2022-09-14T05:21:45.919Z,12.27
2022-09-14T05:24:15.042Z,10.88
2022-09-14T05:26:43.392Z,9.88
2022-09-14T05:29:14.366Z,9.70
2022-09-14T05:31:44.578Z,10.15
2022-09-14T05:34:29.277Z,8.40
2022-09-14T05:37:13.299Z,9.90
2022-09-14T05:39:49.829Z,8.20
2022-09-14T05:43:05.857Z,8.90
2022-09-14T05:49:06.076Z,8.18
2022-09-14T05:51:34.502Z,10.40
2022-09-14T05:54:03.853Z,7.18
2022-09-14T05:56:32.018Z,9.03
2022-09-14T05:59:00.483Z,5.80
2022-09-14T06:01:30.520Z,8.75
2022-09-14T06:04:00.574Z,6.75
2022-09-14T06:06:27.649Z,8.73
2022-09-14T06:08:55.798Z,10.70
2022-09-14T06:11:31.007Z,8.55
2022-09-14T06:13:58.872Z,6.65
2022-09-14T06:16:29.360Z,7.10
2022-09-14T06:18:58.166Z,8.13
2022-09-14T06:21:28.618Z,8.13
2022-09-14T06:23:56.279Z,10.23
2022-09-14T06:26:23.788Z,6.35
2022-09-14T06:28:51.749Z,9.10
2022-09-14T06:31:22.806Z,6.75
2022-09-14T06:33:50.815Z,6.47
2022-09-14T06:36:27.744Z,7.03
2022-09-14T06:38:55.172Z,8.07
2022-09-14T06:41:27.096Z,6.82
2022-09-14T06:46:42.734Z,7.65
2022-09-14T06:49:23.245Z,7.88
2022-09-14T06:52:02.202Z,5.75
2022-09-14T06:54:30.414Z,5.57
2022-09-14T06:56:58.989Z,6.60
2022-09-14T06:59:29.307Z,4.78
2022-09-14T07:02:02.784Z,5.28
2022-09-14T07:04:33.143Z,5.93
2022-09-14T07:07:22.295Z,4.70
2022-09-14T07:11:39.031Z,5.63
2022-09-14T07:17:59.520Z,5.40
2022-09-14T07:21:01.231Z,6.47
2022-09-14T07:25:17.715Z,7.35
2022-09-14T07:31:29.589Z,8.25
2022-09-14T07:37:36.738Z,7.15
2022-09-14T07:40:38.017Z,6.10
2022-09-14T07:43:18.855Z,7.18
2022-09-14T07:51:06.623Z,8.02
2022-09-14T07:57:07.196Z,7.97
2022-09-14T08:00:22.688Z,6.97
2022-09-14T08:03:08.657Z,8.27
2022-09-14T08:15:49.288Z,6.72
2022-09-14T08:18:41.333Z,5.75
2022-09-14T08:29:05.703Z,5.70
2022-09-14T08:35:07.526Z,7.35
2022-09-14T08:37:36.388Z,8.63
2022-09-14T08:40:19.687Z,6.55
2022-09-14T08:42:55.264Z,7.93
2022-09-14T08:46:12.188Z,6.35
2022-09-14T08:48:57.806Z,6.03
2022-09-14T08:51:54.623Z,7.72
2022-09-14T08:54:55.242Z,7.47
2022-09-14T08:57:44.190Z,9.25
2022-09-14T09:10:39.056Z,6.07
2022-09-14T09:13:24.799Z,4.97
2022-09-14T09:17:38.295Z,9.40
2022-09-14T09:37:25.773Z,4.90
2022-09-14T09:40:04.839Z,7.75
2022-09-14T09:42:40.289Z,5.20
2022-09-14T09:45:15.991Z,7.32
2022-09-14T09:48:02.993Z,10.23
2022-09-14T09:54:15.495Z,6.45
2022-09-14T09:56:58.380Z,6.15
2022-09-14T09:59:36.094Z,4.97
2022-09-14T10:02:30.569Z,6.55
2022-09-14T10:05:02.510Z,8.38
2022-09-14T10:07:32.957Z,6.63
2022-09-14T10:10:06.395Z,7.20
2022-09-14T10:12:33.857Z,7.57
2022-09-14T10:15:27.894Z,6.43
2022-09-14T10:18:11.212Z,7.47
2022-09-14T10:20:58.722Z,4.03
2022-09-14T10:23:27.048Z,4.93
2022-09-14T10:26:14.896Z,5.10
2022-09-14T10:28:43.529Z,7.03
2022-09-14T10:31:24.766Z,6.07
2022-09-14T10:33:54.074Z,5.03
2022-09-14T10:36:33.196Z,5.25
2022-09-14T10:39:03.536Z,8.35
2022-09-14T10:41:45.869Z,8.05
2022-09-14T10:44:25.914Z,5.72
2022-09-14T10:47:04.791Z,6.38
2022-09-14T10:49:41.138Z,5.53
2022-09-14T10:52:47.279Z,7.13
2022-09-14T10:55:25.592Z,10.25
2022-09-14T10:58:14.479Z,8.13
2022-09-14T11:01:08.702Z,5.82
2022-09-14T11:03:56.889Z,5.25
2022-09-14T11:06:27.214Z,6.32
2022-09-14T11:09:17.344Z,8.65
2022-09-14T11:12:12.231Z,10.07
2022-09-14T11:14:39.361Z,6.50
2022-09-14T11:17:25.487Z,6.88
2022-09-14T11:19:56.194Z,7.38
2022-09-14T11:23:04.856Z,8.50
2022-09-14T11:26:17.379Z,7.65
2022-09-14T11:28:51.941Z,6.00
2022-09-14T11:31:27.104Z,6.28
2022-09-14T11:34:18.155Z,5.07
2022-09-14T11:36:49.188Z,7.22
2022-09-14T11:40:13.869Z,5.60
2022-09-14T11:42:46.955Z,6.97
2022-09-14T11:45:18.196Z,5.40
2022-09-14T11:47:50.597Z,6.20
2022-09-14T11:50:24.185Z,6.05
2022-09-14T11:53:04.005Z,6.80
2022-09-14T11:55:31.422Z,7.80
2022-09-14T11:58:06.317Z,5.65
2022-09-14T12:00:44.883Z,8.02
2022-09-14T12:03:20.724Z,6.50
2022-09-14T12:05:49.106Z,4.88
2022-09-14T12:08:31.603Z,7.00
2022-09-14T12:11:23.483Z,7.43
2022-09-14T12:14:27.328Z,6.72
2022-09-14T12:17:35.754Z,5.32
2022-09-14T12:20:28.673Z,6.88
2022-09-14T12:23:11.203Z,5.22
2022-09-14T12:25:41.104Z,3.88
2022-09-14T12:28:30.650Z,7.45
2022-09-14T12:30:58.828Z,4.50
2022-09-14T12:33:36.096Z,4.85
2022-09-14T12:36:29.175Z,5.07
2022-09-14T12:38:59.467Z,7.57
2022-09-14T12:41:46.747Z,6.20
2022-09-14T12:44:37.653Z,4.50
2022-09-14T12:47:29.999Z,4.15
2022-09-14T12:50:16.583Z,5.20
2022-09-14T12:53:21.875Z,5.78
2022-09-14T12:56:12.298Z,4.35
2022-09-14T12:58:39.762Z,5.57
2022-09-14T13:01:45.881Z,5.60
2022-09-14T13:04:42.360Z,4.68
2022-09-14T13:07:21.794Z,4.15
2022-09-14T13:09:54.159Z,4.53
2022-09-14T13:12:45.663Z,5.75
2022-09-14T13:15:17.064Z,5.05
2022-09-14T13:17:58.365Z,4.93
2022-09-14T13:20:29.480Z,7.15
2022-09-14T13:22:56.714Z,6.25
2022-09-14T13:25:33.193Z,6.22
2022-09-14T13:28:05.622Z,4.85
2022-09-14T13:30:33.962Z,5.22
2022-09-14T13:33:28.879Z,4.07
2022-09-14T13:35:59.131Z,5.60
2022-09-14T13:38:37.078Z,5.75
2022-09-14T13:41:17.012Z,4.93
2022-09-14T13:43:44.916Z,4.72
2022-09-14T13:46:12.531Z,6.88
2022-09-14T13:48:41.489Z,3.30
2022-09-14T13:51:16.146Z,6.43
2022-09-14T13:53:43.543Z,4.28
2022-09-14T13:56:33.931Z,5.32
2022-09-14T13:59:13.054Z,4.15
2022-09-14T14:01:45.315Z,4.03
2022-09-14T14:04:27.719Z,5.15
2022-09-14T14:07:14.631Z,3.88
2022-09-14T14:09:52.314Z,4.72
2022-09-14T14:12:28.410Z,4.15
2022-09-14T14:14:57.163Z,4.68
2022-09-14T14:17:37.060Z,6.18
2022-09-14T14:20:27.307Z,5.57
2022-09-14T14:23:10.757Z,3.65
2022-09-14T14:25:46.030Z,3.90
2022-09-14T14:28:27.482Z,4.57
2022-09-14T14:30:57.882Z,3.40
2022-09-14T14:33:25.192Z,5.88
2022-09-14T14:35:56.629Z,4.88
2022-09-14T14:38:36.633Z,5.05
2022-09-14T14:43:31.677Z,5.13
2022-09-14T14:46:04.376Z,4.25
2022-09-14T14:48:33.783Z,5.78
2022-09-14T14:51:03.676Z,4.53
2022-09-14T14:55:58.249Z,4.47
2022-09-14T14:58:29.289Z,5.93
2022-09-14T15:00:56.737Z,4.43
2022-09-14T15:03:24.467Z,6.90
2022-09-14T15:05:51.742Z,5.00
2022-09-14T15:08:20.217Z,3.65
2022-09-14T15:10:47.806Z,7.03
2022-09-14T15:13:15.145Z,4.38
2022-09-14T15:15:43.227Z,5.30
2022-09-14T15:18:11.178Z,6.28
2022-09-14T15:20:39.434Z,5.72
2022-09-14T15:23:06.788Z,5.82
2022-09-14T15:25:36.918Z,4.63
2022-09-14T15:28:04.209Z,4.63
2022-09-14T15:30:40.292Z,6.38
2022-09-14T15:33:26.183Z,6.57
2022-09-14T15:37:04.592Z,3.88
2022-09-14T15:39:35.665Z,3.72
2022-09-14T15:42:05.838Z,6.00
2022-09-14T15:44:36.111Z,4.55
2022-09-14T15:47:09.991Z,4.80
2022-09-14T15:49:37.378Z,4.47
2022-09-14T15:52:04.871Z,2.90
2022-09-14T15:54:37.402Z,6.30
2022-09-14T15:57:16.913Z,5.93
2022-09-14T15:59:45.248Z,4.50
2022-09-14T16:02:12.562Z,4.53
2022-09-14T16:04:39.847Z,5.40
2022-09-14T16:07:10.149Z,4.82
2022-09-14T16:09:58.795Z,5.72
2022-09-14T16:12:33.309Z,6.13
2022-09-14T16:15:00.923Z,4.18
2022-09-14T16:17:29.590Z,4.07
2022-09-14T16:19:56.926Z,4.18
2022-09-14T16:22:25.364Z,5.85
2022-09-14T16:24:52.532Z,4.13
2022-09-14T16:27:36.575Z,4.28
2022-09-14T16:30:04.058Z,6.38
2022-09-14T16:32:31.807Z,6.80
2022-09-14T16:34:59.109Z,4.88
2022-09-14T16:37:27.670Z,4.95
2022-09-14T16:39:55.025Z,4.57
2022-09-14T16:42:22.347Z,4.80
2022-09-14T16:44:49.874Z,4.35
2022-09-14T16:47:17.057Z,3.28
2022-09-14T16:49:44.404Z,4.80
2022-09-14T16:52:11.747Z,5.20
2022-09-14T16:54:38.932Z,5.03
2022-09-14T16:57:06.137Z,5.80
2022-09-14T16:59:33.469Z,4.97
2022-09-14T17:02:00.723Z,5.93
2022-09-14T17:04:28.083Z,5.22
2022-09-14T17:06:56.212Z,3.15
2022-09-14T17:09:28.035Z,5.72
2022-09-14T17:11:55.715Z,3.50
2022-09-14T17:14:25.177Z,6.38
2022-09-14T17:16:52.799Z,3.22
2022-09-14T17:19:20.109Z,5.15
2022-09-14T17:21:47.801Z,3.85
2022-09-14T17:24:15.480Z,5.03
2022-09-14T17:26:43.033Z,3.03
2022-09-14T17:29:10.260Z,4.25
2022-09-14T17:31:39.380Z,5.18
2022-09-14T17:34:07.930Z,2.63
2022-09-14T17:36:35.151Z,3.58
2022-09-14T17:39:19.537Z,4.47
2022-09-14T17:41:56.807Z,3.83
2022-09-14T17:44:26.139Z,4.72
2022-09-14T17:46:53.461Z,3.72
2022-09-14T17:49:23.650Z,4.25
2022-09-14T17:51:51.290Z,5.63
2022-09-14T17:54:18.902Z,4.20
2022-09-14T17:56:46.051Z,4.05
2022-09-14T17:59:15.881Z,4.63
2022-09-14T18:01:43.119Z,7.00
2022-09-14T18:04:13.330Z,6.57
2022-09-14T18:09:11.160Z,3.75
2022-09-14T18:11:38.552Z,3.65
2022-09-14T18:14:06.279Z,4.88
2022-09-14T18:16:33.713Z,4.93
2022-09-14T18:19:00.878Z,5.13
2022-09-14T18:21:28.797Z,5.65
2022-09-14T18:23:55.880Z,4.35
2022-09-14T18:26:23.730Z,4.55
2022-09-14T18:28:51.544Z,3.15
2022-09-14T18:31:19.784Z,6.03
2022-09-14T18:33:52.536Z,4.65
2022-09-14T18:36:20.318Z,5.80
2022-09-14T18:38:48.716Z,4.13
2022-09-14T18:41:17.397Z,5.05
2022-09-14T18:43:49.884Z,4.75
2022-09-14T18:46:18.042Z,3.78
2022-09-14T18:48:45.484Z,5.20
2022-09-14T18:51:13.683Z,4.05
2022-09-14T18:53:41.003Z,5.03
2022-09-14T18:56:10.281Z,4.25
2022-09-14T18:58:38.759Z,5.63
2022-09-14T19:01:06.198Z,4.00
2022-09-14T19:03:33.878Z,5.05
2022-09-14T19:06:05.847Z,5.30
2022-09-14T19:08:33.472Z,6.18
2022-09-14T19:11:08.178Z,8.25
2022-09-14T19:13:35.531Z,5.13
2022-09-14T19:16:10.520Z,4.93
2022-09-14T19:18:37.839Z,6.10
2022-09-14T19:21:14.077Z,5.85
2022-09-14T19:23:41.633Z,7.10
2022-09-14T19:26:11.330Z,6.10
2022-09-14T19:28:38.830Z,6.75
2022-09-14T19:31:10.928Z,6.30
2022-09-14T19:33:42.000Z,8.70
2022-09-14T19:36:14.430Z,6.80
2022-09-14T19:38:41.807Z,6.95
2022-09-14T19:41:08.910Z,10.05
2022-09-14T19:43:39.820Z,7.32
2022-09-14T19:46:10.959Z,9.18
2022-09-14T19:48:39.115Z,6.90
2022-09-14T19:51:08.689Z,8.70
2022-09-14T19:53:36.702Z,8.30
2022-09-14T19:56:10.093Z,9.70
2022-09-14T19:58:38.784Z,6.53
2022-09-14T20:01:07.728Z,5.28
2022-09-14T20:03:37.159Z,13.98
2022-09-14T20:06:21.230Z,5.93
2022-09-14T20:08:56.676Z,6.50
2022-09-14T20:11:25.144Z,8.85
2022-09-14T20:13:56.864Z,9.82
2022-09-14T20:16:33.152Z,9.43
2022-09-14T20:19:07.189Z,5.18
2022-09-14T20:21:36.612Z,7.60
2022-09-14T20:24:21.704Z,8.82
2022-09-14T20:26:50.273Z,8.55
2022-09-14T20:29:18.527Z,8.55
2022-09-14T20:31:46.209Z,6.30
2022-09-14T20:34:13.899Z,6.40
2022-09-14T20:36:41.725Z,5.32
2022-09-14T20:39:15.575Z,9.50
2022-09-14T20:41:43.626Z,10.55
2022-09-14T20:44:14.743Z,8.57
2022-09-14T20:47:23.688Z,9.57
2022-09-14T20:49:53.964Z,8.38
2022-09-14T20:52:21.501Z,9.52
2022-09-14T20:54:53.108Z,12.95
2022-09-14T20:57:25.224Z,9.95
2022-09-14T20:59:52.640Z,11.50
2022-09-14T21:02:19.989Z,11.48
2022-09-14T21:04:47.450Z,11.40
2022-09-14T21:07:14.494Z,11.02
2022-09-14T21:09:41.804Z,11.05
2022-09-14T21:12:14.221Z,9.75
2022-09-14T21:14:42.654Z,12.52
2022-09-14T21:17:09.888Z,13.75
2022-09-14T21:19:39.323Z,13.90
2022-09-14T21:22:07.785Z,11.30
2022-09-14T21:24:36.619Z,11.35
2022-09-14T21:27:04.904Z,12.25
2022-09-14T21:29:32.769Z,11.82
2022-09-14T21:32:00.233Z,11.75
2022-09-14T21:34:27.403Z,13.02
2022-09-14T21:36:57.321Z,10.43
2022-09-14T21:39:25.191Z,11.48
2022-09-14T21:41:58.437Z,11.30
2022-09-14T21:44:42.746Z,15.35
2022-09-14T21:47:10.238Z,10.00
2022-09-14T21:49:37.606Z,12.57
2022-09-14T21:52:05.439Z,10.38
2022-09-14T21:54:36.159Z,16.52
2022-09-14T21:57:04.498Z,10.85
2022-09-14T21:59:31.836Z,10.43
2022-09-14T22:01:59.059Z,13.63
2022-09-14T22:04:27.009Z,10.80
2022-09-14T22:06:54.668Z,10.30
2022-09-14T22:09:23.450Z,8.65
2022-09-14T22:11:54.034Z,10.05
2022-09-14T22:14:24.825Z,9.35
2022-09-14T22:16:51.973Z,10.07
2022-09-14T22:19:27.566Z,7.63
2022-09-14T22:21:55.016Z,9.57
2022-09-14T22:24:32.298Z,8.23
2022-09-14T22:27:05.645Z,8.98
2022-09-14T22:29:35.412Z,8.18
2022-09-14T22:32:03.543Z,9.30
2022-09-14T22:34:32.358Z,12.98
2022-09-14T22:36:59.699Z,9.63
2022-09-14T22:39:27.083Z,11.57
2022-09-14T22:41:54.931Z,9.48
2022-09-14T22:44:22.151Z,8.95
2022-09-14T22:46:49.776Z,11.10
2022-09-14T22:49:16.832Z,10.30
2022-09-14T22:51:44.109Z,9.07
2022-09-14T22:54:11.352Z,10.98
2022-09-14T22:56:39.131Z,9.80
2022-09-14T22:59:07.913Z,10.23
2022-09-14T23:01:37.474Z,9.50
2022-09-14T23:04:10.023Z,10.07
2022-09-14T23:06:39.550Z,9.98
2022-09-14T23:09:07.706Z,9.00
2022-09-14T23:11:36.005Z,10.85
2022-09-14T23:14:06.270Z,12.00
2022-09-14T23:19:02.805Z,9.52
2022-09-14T23:21:30.380Z,9.10
2022-09-14T23:24:00.059Z,10.65
2022-09-14T23:26:27.400Z,10.70
2022-09-14T23:28:59.521Z,9.63
2022-09-14T23:31:27.168Z,9.38
2022-09-14T23:33:55.860Z,9.40
2022-09-14T23:36:23.266Z,10.95
2022-09-14T23:38:50.772Z,8.43
2022-09-14T23:41:18.642Z,11.27
2022-09-14T23:43:45.941Z,11.48
2022-09-14T23:46:13.044Z,9.43
2022-09-14T23:48:40.248Z,9.07
2022-09-14T23:51:08.228Z,10.48
2022-09-14T23:53:35.615Z,8.70
2022-09-14T23:56:05.416Z,12.98
2022-09-14T23:58:33.922Z,12.73
